ELY5032 LGRP-LLBG
Flight info
| Callsign | ELY5032 |
|---|---|
| Flight time | 1h 6m |
| Altitude | 37000 |
| Route | NILAS UL609 ALKIS L609 APLON DCT PIKOG L609 ZUKKO |
| Aircraft | B738/M-VGDW/C |
Departure
| Time | 2026-05-07 17:13 |
|---|---|
| Airport | Rhodes International Airport "Diagoras" (LGRP) |
Arrival
| Time | 2026-05-07 18:19 |
|---|---|
| Airport | Ben Gurion International Airport (LLBG) |
| Time | Latitude | Longitude | Altitude | Speed | Heading |
|---|---|---|---|---|---|
| 2026-05-07 17:01 | 36.40291 | 28.08884 | 28 ft | 0 kts | 160° |
| 2026-05-07 17:07 | 36.40294 | 28.08882 | 28 ft | 3 kts | 160° |
| 2026-05-07 17:07 | 36.40320 | 28.08874 | 28 ft | 4 kts | 178° |
| 2026-05-07 17:07 | 36.40347 | 28.08876 | 28 ft | 4 kts | 184° |
| 2026-05-07 17:07 | 36.40370 | 28.08875 | 28 ft | 4 kts | 165° |
| 2026-05-07 17:08 | 36.40390 | 28.08859 | 28 ft | 4 kts | 114° |
| 2026-05-07 17:08 | 36.40395 | 28.08828 | 28 ft | 3 kts | 86° |
| 2026-05-07 17:08 | 36.40394 | 28.08818 | 28 ft | 0 kts | 85° |
| 2026-05-07 17:09 | 36.40396 | 28.08844 | 28 ft | 10 kts | 86° |
| 2026-05-07 17:09 | 36.40395 | 28.08969 | 28 ft | 17 kts | 84° |
| 2026-05-07 17:10 | 36.40436 | 28.09132 | 28 ft | 20 kts | 69° |
| 2026-05-07 17:10 | 36.40484 | 28.09292 | 28 ft | 19 kts | 67° |
| 2026-05-07 17:10 | 36.40573 | 28.09408 | 28 ft | 18 kts | 49° |
| 2026-05-07 17:10 | 36.40635 | 28.09585 | 28 ft | 25 kts | 70° |
| 2026-05-07 17:11 | 36.40698 | 28.09801 | 28 ft | 28 kts | 70° |
| 2026-05-07 17:11 | 36.40763 | 28.10021 | 28 ft | 26 kts | 70° |
| 2026-05-07 17:11 | 36.40821 | 28.10220 | 28 ft | 23 kts | 70° |
| 2026-05-07 17:11 | 36.40870 | 28.10386 | 28 ft | 16 kts | 70° |
| 2026-05-07 17:12 | 36.40963 | 28.10413 | 28 ft | 18 kts | 323° |
| 2026-05-07 17:12 | 36.41024 | 28.10297 | 28 ft | 16 kts | 263° |
| 2026-05-07 17:12 | 36.40967 | 28.10097 | 28 ft | 46 kts | 250° |
| 2026-05-07 17:12 | 36.40776 | 28.09447 | 28 ft | 110 kts | 250° |
| 2026-05-07 17:13 | 36.40452 | 28.08340 | 116 ft | 155 kts | 250° |
| 2026-05-07 17:13 | 36.40076 | 28.07074 | 771 ft | 158 kts | 249° |
| 2026-05-07 17:13 | 36.39704 | 28.05825 | 1696 ft | 152 kts | 249° |
| 2026-05-07 17:13 | 36.39322 | 28.04549 | 2342 ft | 161 kts | 250° |
| 2026-05-07 17:14 | 36.38936 | 28.03258 | 3071 ft | 163 kts | 251° |
| 2026-05-07 17:14 | 36.38521 | 28.01865 | 3635 ft | 181 kts | 251° |
| 2026-05-07 17:14 | 36.38050 | 28.00290 | 3970 ft | 207 kts | 251° |
| 2026-05-07 17:14 | 36.37580 | 27.98712 | 4386 ft | 221 kts | 251° |
| 2026-05-07 17:15 | 36.37040 | 27.96903 | 5113 ft | 227 kts | 251° |
| 2026-05-07 17:15 | 36.36484 | 27.95037 | 5868 ft | 232 kts | 251° |
| 2026-05-07 17:15 | 36.35917 | 27.93136 | 6665 ft | 238 kts | 251° |
| 2026-05-07 17:15 | 36.35338 | 27.91191 | 7427 ft | 243 kts | 251° |
| 2026-05-07 17:16 | 36.34749 | 27.89213 | 8212 ft | 247 kts | 251° |
| 2026-05-07 17:16 | 36.34150 | 27.87204 | 8989 ft | 250 kts | 251° |
| 2026-05-07 17:16 | 36.33544 | 27.85168 | 9783 ft | 252 kts | 251° |
| 2026-05-07 17:16 | 36.32715 | 27.83248 | 10577 ft | 257 kts | 230° |
| 2026-05-07 17:17 | 36.31252 | 27.81967 | 11271 ft | 266 kts | 202° |
| 2026-05-07 17:17 | 36.29372 | 27.81630 | 11754 ft | 284 kts | 176° |
| 2026-05-07 17:17 | 36.27368 | 27.82094 | 12129 ft | 304 kts | 167° |
| 2026-05-07 17:17 | 36.25232 | 27.82714 | 12480 ft | 324 kts | 168° |
| 2026-05-07 17:18 | 36.22982 | 27.83365 | 12884 ft | 341 kts | 167° |
| 2026-05-07 17:18 | 36.20611 | 27.84055 | 13181 ft | 361 kts | 167° |
| 2026-05-07 17:18 | 36.18106 | 27.84793 | 13539 ft | 377 kts | 167° |
| 2026-05-07 17:18 | 36.15510 | 27.85551 | 14076 ft | 386 kts | 167° |
| 2026-05-07 17:19 | 36.12887 | 27.86324 | 14762 ft | 390 kts | 168° |
| 2026-05-07 17:19 | 36.10232 | 27.87111 | 15452 ft | 394 kts | 168° |
| 2026-05-07 17:19 | 36.07588 | 27.88054 | 16103 ft | 400 kts | 159° |
| 2026-05-07 17:19 | 36.05185 | 27.89783 | 16727 ft | 406 kts | 142° |
| 2026-05-07 17:20 | 36.03235 | 27.92357 | 17344 ft | 410 kts | 125° |
| 2026-05-07 17:20 | 36.01900 | 27.95475 | 17932 ft | 414 kts | 112° |
| 2026-05-07 17:20 | 36.00704 | 27.98717 | 18520 ft | 418 kts | 115° |
| 2026-05-07 17:20 | 35.99409 | 28.01957 | 19113 ft | 422 kts | 115° |
| 2026-05-07 17:21 | 35.98108 | 28.05225 | 19696 ft | 425 kts | 115° |
| 2026-05-07 17:21 | 35.96804 | 28.08514 | 20276 ft | 428 kts | 115° |
| 2026-05-07 17:21 | 35.95497 | 28.11823 | 20829 ft | 432 kts | 115° |
| 2026-05-07 17:21 | 35.94180 | 28.15160 | 21359 ft | 435 kts | 115° |
| 2026-05-07 17:22 | 35.92845 | 28.18548 | 21845 ft | 439 kts | 115° |
| 2026-05-07 17:22 | 35.91501 | 28.21955 | 22351 ft | 443 kts | 115° |
| 2026-05-07 17:22 | 35.90150 | 28.25383 | 22843 ft | 446 kts | 115° |
| 2026-05-07 17:22 | 35.88791 | 28.28827 | 23320 ft | 449 kts | 115° |
| 2026-05-07 17:23 | 35.87430 | 28.32298 | 23783 ft | 452 kts | 115° |
| 2026-05-07 17:23 | 35.86077 | 28.35805 | 24238 ft | 454 kts | 115° |
| 2026-05-07 17:23 | 35.84705 | 28.39337 | 24653 ft | 458 kts | 115° |
| 2026-05-07 17:23 | 35.83316 | 28.42889 | 25034 ft | 462 kts | 115° |
| 2026-05-07 17:24 | 35.81913 | 28.46466 | 25462 ft | 465 kts | 115° |
| 2026-05-07 17:24 | 35.80499 | 28.50062 | 25859 ft | 468 kts | 115° |
| 2026-05-07 17:24 | 35.79073 | 28.53680 | 26234 ft | 471 kts | 115° |
| 2026-05-07 17:24 | 35.77633 | 28.57327 | 26609 ft | 474 kts | 115° |
| 2026-05-07 17:25 | 35.76186 | 28.60986 | 26981 ft | 477 kts | 115° |
| 2026-05-07 17:25 | 35.74730 | 28.64663 | 27318 ft | 480 kts | 115° |
| 2026-05-07 17:25 | 35.73259 | 28.68374 | 27673 ft | 483 kts | 115° |
| 2026-05-07 17:25 | 35.71782 | 28.72094 | 28002 ft | 486 kts | 115° |
| 2026-05-07 17:26 | 35.70293 | 28.75841 | 28339 ft | 488 kts | 115° |
| 2026-05-07 17:26 | 35.68798 | 28.79596 | 28668 ft | 490 kts | 115° |
| 2026-05-07 17:26 | 35.67292 | 28.83377 | 28972 ft | 493 kts | 115° |
| 2026-05-07 17:26 | 35.65781 | 28.87166 | 29290 ft | 495 kts | 115° |
| 2026-05-07 17:27 | 35.64258 | 28.90974 | 29677 ft | 495 kts | 115° |
| 2026-05-07 17:27 | 35.62743 | 28.94769 | 30140 ft | 493 kts | 115° |
| 2026-05-07 17:27 | 35.61231 | 28.98548 | 30518 ft | 494 kts | 115° |
| 2026-05-07 17:27 | 35.59710 | 29.02343 | 30842 ft | 495 kts | 115° |
| 2026-05-07 17:28 | 35.58192 | 29.06128 | 31205 ft | 495 kts | 115° |
| 2026-05-07 17:28 | 35.56666 | 29.09927 | 31537 ft | 496 kts | 115° |
| 2026-05-07 17:28 | 35.55140 | 29.13724 | 31886 ft | 496 kts | 114° |
| 2026-05-07 17:28 | 35.53615 | 29.17514 | 32231 ft | 496 kts | 114° |
| 2026-05-07 17:29 | 35.52104 | 29.21262 | 32531 ft | 497 kts | 114° |
| 2026-05-07 17:29 | 35.50569 | 29.25067 | 32871 ft | 497 kts | 114° |
| 2026-05-07 17:29 | 35.49015 | 29.28915 | 33169 ft | 498 kts | 114° |
| 2026-05-07 17:29 | 35.47478 | 29.32718 | 33498 ft | 498 kts | 114° |
| 2026-05-07 17:30 | 35.45935 | 29.36529 | 33771 ft | 499 kts | 114° |
| 2026-05-07 17:30 | 35.44391 | 29.40340 | 34064 ft | 499 kts | 114° |
| 2026-05-07 17:30 | 35.42847 | 29.44146 | 34374 ft | 500 kts | 114° |
| 2026-05-07 17:30 | 35.41295 | 29.47966 | 34675 ft | 499 kts | 114° |
| 2026-05-07 17:31 | 35.39746 | 29.51776 | 34961 ft | 500 kts | 114° |
| 2026-05-07 17:31 | 35.38194 | 29.55590 | 35254 ft | 500 kts | 114° |
| 2026-05-07 17:31 | 35.36639 | 29.59404 | 35505 ft | 501 kts | 114° |
| 2026-05-07 17:31 | 35.35084 | 29.63217 | 35822 ft | 500 kts | 114° |
| 2026-05-07 17:32 | 35.33562 | 29.66985 | 36064 ft | 501 kts | 114° |
| 2026-05-07 17:32 | 35.31997 | 29.70850 | 36361 ft | 500 kts | 114° |
| 2026-05-07 17:32 | 35.30461 | 29.74606 | 36671 ft | 499 kts | 114° |
| 2026-05-07 17:32 | 35.29411 | 29.77164 | 36827 ft | 499 kts | 114° |
| 2026-05-07 17:33 | 35.27320 | 29.82244 | 37111 ft | 501 kts | 114° |
| 2026-05-07 17:33 | 35.25768 | 29.86010 | 37136 ft | 503 kts | 114° |
| 2026-05-07 17:33 | 35.22611 | 29.93665 | 37135 ft | 502 kts | 114° |
| 2026-05-07 17:34 | 35.19244 | 30.01115 | 37132 ft | 501 kts | 122° |
| 2026-05-07 17:34 | 35.15104 | 30.07905 | 37131 ft | 496 kts | 127° |
| 2026-05-07 17:35 | 35.10859 | 30.14554 | 37131 ft | 497 kts | 127° |
| 2026-05-07 17:35 | 35.06625 | 30.21219 | 37129 ft | 497 kts | 127° |
| 2026-05-07 17:36 | 35.02395 | 30.27884 | 37128 ft | 497 kts | 127° |
| 2026-05-07 17:36 | 34.98161 | 30.34569 | 37127 ft | 498 kts | 126° |
| 2026-05-07 17:37 | 34.93965 | 30.41258 | 37126 ft | 496 kts | 126° |
| 2026-05-07 17:37 | 34.90435 | 30.46843 | 37125 ft | 496 kts | 126° |
| 2026-05-07 17:38 | 34.86213 | 30.53497 | 37125 ft | 496 kts | 126° |
| 2026-05-07 17:38 | 34.81985 | 30.60142 | 37124 ft | 496 kts | 126° |
| 2026-05-07 17:39 | 34.77780 | 30.66736 | 37123 ft | 496 kts | 127° |
| 2026-05-07 17:39 | 34.73546 | 30.73360 | 37122 ft | 496 kts | 126° |
| 2026-05-07 17:40 | 34.69306 | 30.79984 | 37121 ft | 496 kts | 127° |
| 2026-05-07 17:40 | 34.65073 | 30.86584 | 37113 ft | 495 kts | 127° |
| 2026-05-07 17:41 | 34.60831 | 30.93185 | 37112 ft | 495 kts | 127° |
| 2026-05-07 17:41 | 34.56593 | 30.99767 | 37112 ft | 495 kts | 127° |
| 2026-05-07 17:42 | 34.52358 | 31.06334 | 37112 ft | 494 kts | 127° |
| 2026-05-07 17:42 | 34.48118 | 31.12894 | 37112 ft | 494 kts | 127° |
| 2026-05-07 17:43 | 34.43885 | 31.19433 | 37112 ft | 493 kts | 127° |
| 2026-05-07 17:43 | 34.39651 | 31.25961 | 37112 ft | 493 kts | 127° |
| 2026-05-07 17:44 | 34.35415 | 31.32481 | 37112 ft | 492 kts | 127° |
| 2026-05-07 17:44 | 34.31178 | 31.38986 | 37111 ft | 492 kts | 127° |
| 2026-05-07 17:45 | 34.26948 | 31.45476 | 37112 ft | 491 kts | 127° |
| 2026-05-07 17:45 | 34.22714 | 31.51958 | 37112 ft | 491 kts | 127° |
| 2026-05-07 17:46 | 34.18486 | 31.58417 | 37112 ft | 490 kts | 127° |
| 2026-05-07 17:46 | 34.14260 | 31.64863 | 37112 ft | 490 kts | 127° |
| 2026-05-07 17:47 | 34.10024 | 31.71312 | 37112 ft | 490 kts | 127° |
| 2026-05-07 17:47 | 34.05799 | 31.77754 | 37112 ft | 489 kts | 127° |
| 2026-05-07 17:48 | 34.01611 | 31.84135 | 37112 ft | 489 kts | 127° |
| 2026-05-07 17:48 | 33.97369 | 31.90548 | 37112 ft | 489 kts | 127° |
| 2026-05-07 17:49 | 33.93130 | 31.96938 | 37112 ft | 489 kts | 127° |
| 2026-05-07 17:49 | 33.88888 | 32.03327 | 37112 ft | 489 kts | 127° |
| 2026-05-07 17:50 | 33.84661 | 32.09726 | 37112 ft | 489 kts | 127° |
| 2026-05-07 17:50 | 33.80445 | 32.16139 | 37112 ft | 489 kts | 127° |
| 2026-05-07 17:51 | 33.76220 | 32.22552 | 37112 ft | 489 kts | 127° |
| 2026-05-07 17:51 | 33.71998 | 32.28947 | 37112 ft | 488 kts | 127° |
| 2026-05-07 17:52 | 33.67779 | 32.35327 | 37112 ft | 488 kts | 127° |
| 2026-05-07 17:52 | 33.63578 | 32.41709 | 37111 ft | 487 kts | 127° |
| 2026-05-07 17:53 | 33.59385 | 32.48094 | 37110 ft | 487 kts | 127° |
| 2026-05-07 17:53 | 33.55179 | 32.54459 | 37109 ft | 486 kts | 127° |
| 2026-05-07 17:54 | 33.50975 | 32.60801 | 37109 ft | 485 kts | 128° |
| 2026-05-07 17:54 | 33.46782 | 32.67108 | 36720 ft | 488 kts | 128° |
| 2026-05-07 17:55 | 33.44648 | 32.70318 | 36175 ft | 486 kts | 128° |
| 2026-05-07 17:55 | 33.42565 | 32.73446 | 35514 ft | 488 kts | 128° |
| 2026-05-07 17:55 | 33.40445 | 32.76626 | 34832 ft | 489 kts | 127° |
| 2026-05-07 17:55 | 33.38325 | 32.79804 | 34139 ft | 490 kts | 127° |
| 2026-05-07 17:56 | 33.36194 | 32.82995 | 33431 ft | 491 kts | 127° |
| 2026-05-07 17:56 | 33.34057 | 32.86194 | 32707 ft | 492 kts | 128° |
| 2026-05-07 17:56 | 33.31921 | 32.89388 | 32005 ft | 493 kts | 128° |
| 2026-05-07 17:56 | 33.29786 | 32.92578 | 31455 ft | 489 kts | 128° |
| 2026-05-07 17:57 | 33.27666 | 32.95742 | 30915 ft | 485 kts | 129° |
| 2026-05-07 17:57 | 33.26240 | 32.97867 | 30553 ft | 483 kts | 129° |
| 2026-05-07 17:57 | 33.23472 | 33.01991 | 29861 ft | 478 kts | 129° |
| 2026-05-07 17:57 | 33.21400 | 33.05075 | 29349 ft | 475 kts | 129° |
| 2026-05-07 17:58 | 33.19341 | 33.08137 | 28841 ft | 472 kts | 129° |
| 2026-05-07 17:58 | 33.17290 | 33.11182 | 28334 ft | 468 kts | 129° |
| 2026-05-07 17:58 | 33.15257 | 33.14200 | 27828 ft | 465 kts | 129° |
| 2026-05-07 17:58 | 33.13240 | 33.17193 | 27327 ft | 462 kts | 129° |
| 2026-05-07 17:59 | 33.11234 | 33.20168 | 26825 ft | 458 kts | 129° |
| 2026-05-07 17:59 | 33.09240 | 33.23123 | 26325 ft | 455 kts | 129° |
| 2026-05-07 17:59 | 33.07264 | 33.26053 | 25858 ft | 451 kts | 129° |
| 2026-05-07 17:59 | 33.05354 | 33.28984 | 25581 ft | 443 kts | 127° |
| 2026-05-07 18:00 | 33.03509 | 33.31888 | 25328 ft | 436 kts | 127° |
| 2026-05-07 18:00 | 33.01680 | 33.34763 | 25071 ft | 436 kts | 127° |
| 2026-05-07 18:00 | 32.99857 | 33.37623 | 24681 ft | 432 kts | 127° |
| 2026-05-07 18:00 | 32.98042 | 33.40469 | 24219 ft | 430 kts | 127° |
| 2026-05-07 18:01 | 32.96240 | 33.43292 | 23751 ft | 427 kts | 127° |
| 2026-05-07 18:01 | 32.94442 | 33.46105 | 23279 ft | 425 kts | 127° |
| 2026-05-07 18:01 | 32.92658 | 33.48895 | 22805 ft | 423 kts | 127° |
| 2026-05-07 18:01 | 32.90879 | 33.51676 | 22330 ft | 421 kts | 127° |
| 2026-05-07 18:02 | 32.87347 | 33.57191 | 21379 ft | 417 kts | 127° |
| 2026-05-07 18:02 | 32.86192 | 33.59016 | 21020 ft | 417 kts | 127° |
| 2026-05-07 18:02 | 32.83864 | 33.62687 | 20349 ft | 414 kts | 127° |
| 2026-05-07 18:03 | 32.82126 | 33.65411 | 19868 ft | 412 kts | 127° |
| 2026-05-07 18:03 | 32.80401 | 33.68114 | 19391 ft | 410 kts | 127° |
| 2026-05-07 18:03 | 32.78679 | 33.70806 | 18918 ft | 407 kts | 127° |
| 2026-05-07 18:03 | 32.76968 | 33.73475 | 18445 ft | 405 kts | 127° |
| 2026-05-07 18:04 | 32.75265 | 33.76131 | 17977 ft | 402 kts | 127° |
| 2026-05-07 18:04 | 32.73573 | 33.78766 | 17510 ft | 400 kts | 127° |
| 2026-05-07 18:04 | 32.71894 | 33.81379 | 17114 ft | 395 kts | 127° |
| 2026-05-07 18:04 | 32.70237 | 33.83951 | 16660 ft | 393 kts | 127° |
| 2026-05-07 18:05 | 32.68580 | 33.86528 | 16154 ft | 392 kts | 127° |
| 2026-05-07 18:05 | 32.66934 | 33.89085 | 15691 ft | 389 kts | 128° |
| 2026-05-07 18:05 | 32.65293 | 33.91630 | 15234 ft | 386 kts | 128° |
| 2026-05-07 18:05 | 32.63664 | 33.94157 | 14781 ft | 384 kts | 128° |
| 2026-05-07 18:06 | 32.62051 | 33.96657 | 14334 ft | 381 kts | 128° |
| 2026-05-07 18:06 | 32.60445 | 33.99144 | 13890 ft | 378 kts | 128° |
| 2026-05-07 18:06 | 32.58854 | 34.01608 | 13449 ft | 375 kts | 128° |
| 2026-05-07 18:06 | 32.57288 | 34.04015 | 13086 ft | 370 kts | 130° |
| 2026-05-07 18:07 | 32.55577 | 34.06239 | 12835 ft | 361 kts | 135° |
| 2026-05-07 18:07 | 32.53851 | 34.08359 | 12583 ft | 355 kts | 135° |
| 2026-05-07 18:07 | 32.52137 | 34.10450 | 12332 ft | 351 kts | 135° |
| 2026-05-07 18:07 | 32.50441 | 34.12517 | 12082 ft | 349 kts | 135° |
| 2026-05-07 18:08 | 32.48760 | 34.14570 | 11787 ft | 345 kts | 135° |
| 2026-05-07 18:08 | 32.47093 | 34.16607 | 11390 ft | 344 kts | 135° |
| 2026-05-07 18:08 | 32.45435 | 34.18636 | 10988 ft | 342 kts | 134° |
| 2026-05-07 18:08 | 32.43795 | 34.20668 | 10583 ft | 341 kts | 134° |
| 2026-05-07 18:09 | 32.42158 | 34.22681 | 10226 ft | 338 kts | 134° |
| 2026-05-07 18:09 | 32.40551 | 34.24645 | 10134 ft | 326 kts | 134° |
| 2026-05-07 18:09 | 32.39001 | 34.26539 | 10060 ft | 315 kts | 134° |
| 2026-05-07 18:09 | 32.37501 | 34.28366 | 9974 ft | 305 kts | 134° |
| 2026-05-07 18:10 | 32.36026 | 34.30160 | 9676 ft | 303 kts | 134° |
| 2026-05-07 18:10 | 32.34557 | 34.31949 | 9350 ft | 303 kts | 134° |
| 2026-05-07 18:10 | 32.33096 | 34.33725 | 9024 ft | 302 kts | 133° |
| 2026-05-07 18:10 | 32.31635 | 34.35501 | 8697 ft | 301 kts | 133° |
| 2026-05-07 18:11 | 32.30175 | 34.37275 | 8365 ft | 300 kts | 133° |
| 2026-05-07 18:11 | 32.29226 | 34.38428 | 8149 ft | 299 kts | 133° |
| 2026-05-07 18:11 | 32.27275 | 34.40793 | 7701 ft | 299 kts | 133° |
| 2026-05-07 18:11 | 32.25826 | 34.42552 | 7363 ft | 298 kts | 133° |
| 2026-05-07 18:12 | 32.24385 | 34.44302 | 7026 ft | 297 kts | 133° |
| 2026-05-07 18:12 | 32.23017 | 34.46108 | 6809 ft | 290 kts | 124° |
| 2026-05-07 18:12 | 32.21954 | 34.48091 | 6671 ft | 282 kts | 120° |
| 2026-05-07 18:12 | 32.20891 | 34.50020 | 6393 ft | 280 kts | 121° |
| 2026-05-07 18:13 | 32.19829 | 34.51940 | 6099 ft | 278 kts | 121° |
| 2026-05-07 18:13 | 32.18811 | 34.53756 | 5812 ft | 277 kts | 123° |
| 2026-05-07 18:13 | 32.17680 | 34.55598 | 5508 ft | 276 kts | 122° |
| 2026-05-07 18:13 | 32.16620 | 34.57482 | 5206 ft | 275 kts | 120° |
| 2026-05-07 18:14 | 32.15602 | 34.59381 | 4904 ft | 273 kts | 119° |
| 2026-05-07 18:14 | 32.14604 | 34.61281 | 4592 ft | 272 kts | 119° |
| 2026-05-07 18:14 | 32.13612 | 34.63183 | 4286 ft | 271 kts | 118° |
| 2026-05-07 18:14 | 32.12631 | 34.65071 | 4036 ft | 268 kts | 118° |
| 2026-05-07 18:15 | 32.11670 | 34.66923 | 3883 ft | 264 kts | 118° |
| 2026-05-07 18:15 | 32.10715 | 34.68765 | 3574 ft | 261 kts | 118° |
| 2026-05-07 18:15 | 32.09787 | 34.70556 | 3239 ft | 251 kts | 118° |
| 2026-05-07 18:15 | 32.08911 | 34.72245 | 2938 ft | 239 kts | 117° |
| 2026-05-07 18:16 | 32.08057 | 34.73893 | 2615 ft | 226 kts | 117° |
| 2026-05-07 18:16 | 32.07271 | 34.75409 | 2316 ft | 213 kts | 118° |
| 2026-05-07 18:16 | 32.06514 | 34.76867 | 2057 ft | 199 kts | 118° |
| 2026-05-07 18:16 | 32.05814 | 34.78216 | 1798 ft | 188 kts | 118° |
| 2026-05-07 18:17 | 32.05157 | 34.79484 | 1558 ft | 176 kts | 118° |
| 2026-05-07 18:17 | 32.04540 | 34.80672 | 1320 ft | 169 kts | 119° |
| 2026-05-07 18:17 | 32.03945 | 34.81819 | 1094 ft | 161 kts | 120° |
| 2026-05-07 18:17 | 32.03374 | 34.82922 | 892 ft | 155 kts | 120° |
| 2026-05-07 18:18 | 32.02813 | 34.84018 | 655 ft | 155 kts | 120° |
| 2026-05-07 18:18 | 32.02253 | 34.85085 | 462 ft | 154 kts | 121° |
| 2026-05-07 18:18 | 32.01690 | 34.86160 | 261 ft | 153 kts | 121° |
| 2026-05-07 18:18 | 32.01141 | 34.87218 | 147 ft | 147 kts | 122° |
| 2026-05-07 18:19 | 32.00692 | 34.88082 | 143 ft | 91 kts | 122° |
| 2026-05-07 18:19 | 32.00476 | 34.88488 | 143 ft | 35 kts | 131° |
| 2026-05-07 18:19 | 32.00331 | 34.88631 | 143 ft | 22 kts | 150° |
| 2026-05-07 18:19 | 32.00203 | 34.88694 | 143 ft | 17 kts | 166° |
| 2026-05-07 18:20 | 32.00102 | 34.88671 | 143 ft | 13 kts | 255° |
| 2026-05-07 18:20 | 32.00131 | 34.88573 | 143 ft | 13 kts | 302° |
| 2026-05-07 18:20 | 32.00181 | 34.88478 | 143 ft | 16 kts | 302° |
| 2026-05-07 18:20 | 32.00239 | 34.88367 | 143 ft | 15 kts | 302° |
| 2026-05-07 18:21 | 32.00301 | 34.88250 | 143 ft | 19 kts | 301° |
| 2026-05-07 18:21 | 32.00375 | 34.88107 | 143 ft | 21 kts | 301° |
| 2026-05-07 18:21 | 32.00448 | 34.87967 | 143 ft | 17 kts | 301° |
| 2026-05-07 18:21 | 32.00486 | 34.87863 | 143 ft | 13 kts | 251° |
| 2026-05-07 18:22 | 32.00403 | 34.87785 | 143 ft | 17 kts | 211° |
| 2026-05-07 18:22 | 32.00369 | 34.87761 | 143 ft | 17 kts | 211° |
| 2026-05-07 18:22 | 32.00208 | 34.87647 | 143 ft | 16 kts | 211° |
| 2026-05-07 18:22 | 32.00131 | 34.87590 | 143 ft | 12 kts | 212° |
| 2026-05-07 18:23 | 32.00099 | 34.87528 | 143 ft | 6 kts | 286° |
| 2026-05-07 18:23 | 32.00112 | 34.87501 | 143 ft | 1 kts | 300° |
| 2026-05-07 18:23 | 32.00113 | 34.87498 | 143 ft | 0 kts | 300° |